IL25 weather

Bromenn Hospital Heliport
Normal, Illinois, United States

Public forecast

Using degrees Fahrenheit for public forecast. Weather courtesy of forecast.io.

Closest aviation weather report (METAR) to Bromenn Hospital Heliport

Closest report is Central Illinois Regional Airport at Bloomington-Normal, 3.6 nm (6.7 km) ESE. Retrieved 2020/07/02 04:56 UTC (11 minutes ago):

KBMI 020456Z AUTO 08005KT 10SM CLR 23/21 A2996 RMK AO2 SLP134 T02330211

Closest aviation forecast (TAF) to Bromenn Hospital Heliport

Closest forecast is Central Illinois Regional Airport at Bloomington-Normal, 3.6 nm (6.7 km) ESE. Retrieved 2020-07-02 00:33 UTC (5 hours ago):

TAF KBMI 012331Z 0200/0224 14005KT P6SM VCSH SCT040 BKN100 FM020200 VRB03KT P6SM FEW050 SCT250 FM021400 09010KT P6SM SCT050 BKN250